sensor_id;sensor_type;location;lat;lon;timestamp;P1;durP1;ratioP1;P2;durP2;ratioP2
4198;SDS011;2113;50.946;14.610;2024-02-26T00:00:37;13.80;;;8.50;;
4198;SDS011;2113;50.946;14.610;2024-02-26T00:03:05;17.55;;;10.05;;
4198;SDS011;2113;50.946;14.610;2024-02-26T00:05:34;22.90;;;11.68;;
4198;SDS011;2113;50.946;14.610;2024-02-26T00:08:06;14.38;;;9.10;;
4198;SDS011;2113;50.946;14.610;2024-02-26T00:10:34;19.60;;;10.25;;
4198;SDS011;2113;50.946;14.610;2024-02-26T00:13:02;17.05;;;9.75;;
4198;SDS011;2113;50.946;14.610;2024-02-26T00:15:31;20.13;;;9.05;;
4198;SDS011;2113;50.946;14.610;2024-02-26T00:18:02;16.23;;;8.10;;
4198;SDS011;2113;50.946;14.610;2024-02-26T00:20:30;16.42;;;9.38;;
4198;SDS011;2113;50.946;14.610;2024-02-26T00:22:58;14.68;;;8.60;;
4198;SDS011;2113;50.946;14.610;2024-02-26T00:25:28;14.88;;;9.05;;
4198;SDS011;2113;50.946;14.610;2024-02-26T00:27:56;16.60;;;8.98;;
4198;SDS011;2113;50.946;14.610;2024-02-26T00:30:25;14.10;;;8.50;;
4198;SDS011;2113;50.946;14.610;2024-02-26T00:32:53;19.02;;;8.48;;
4198;SDS011;2113;50.946;14.610;2024-02-26T00:35:21;17.45;;;8.68;;
4198;SDS011;2113;50.946;14.610;2024-02-26T00:37:49;14.45;;;8.70;;
4198;SDS011;2113;50.946;14.610;2024-02-26T00:40:18;15.55;;;8.65;;
4198;SDS011;2113;50.946;14.610;2024-02-26T00:42:47;16.25;;;8.77;;
4198;SDS011;2113;50.946;14.610;2024-02-26T00:45:15;16.95;;;9.63;;
4198;SDS011;2113;50.946;14.610;2024-02-26T00:47:43;20.90;;;9.27;;
4198;SDS011;2113;50.946;14.610;2024-02-26T00:50:14;15.45;;;7.78;;
4198;SDS011;2113;50.946;14.610;2024-02-26T00:52:44;16.42;;;8.13;;
4198;SDS011;2113;50.946;14.610;2024-02-26T00:55:12;19.13;;;8.57;;
4198;SDS011;2113;50.946;14.610;2024-02-26T00:57:40;12.27;;;7.55;;
4198;SDS011;2113;50.946;14.610;2024-02-26T01:00:10;17.27;;;8.20;;
4198;SDS011;2113;50.946;14.610;2024-02-26T01:02:39;13.48;;;7.70;;
4198;SDS011;2113;50.946;14.610;2024-02-26T01:05:08;14.95;;;8.30;;
4198;SDS011;2113;50.946;14.610;2024-02-26T01:07:37;18.13;;;7.63;;
4198;SDS011;2113;50.946;14.610;2024-02-26T01:10:06;17.10;;;7.90;;
4198;SDS011;2113;50.946;14.610;2024-02-26T01:12:35;13.20;;;7.43;;
4198;SDS011;2113;50.946;14.610;2024-02-26T01:15:04;19.20;;;7.70;;
4198;SDS011;2113;50.946;14.610;2024-02-26T01:17:35;11.80;;;6.57;;
4198;SDS011;2113;50.946;14.610;2024-02-26T01:20:03;14.77;;;7.03;;
4198;SDS011;2113;50.946;14.610;2024-02-26T01:22:32;12.52;;;7.38;;
4198;SDS011;2113;50.946;14.610;2024-02-26T01:25:00;13.40;;;6.00;;
4198;SDS011;2113;50.946;14.610;2024-02-26T01:27:29;13.43;;;6.85;;
4198;SDS011;2113;50.946;14.610;2024-02-26T01:29:57;14.93;;;5.75;;
4198;SDS011;2113;50.946;14.610;2024-02-26T01:32:26;9.27;;;5.35;;
4198;SDS011;2113;50.946;14.610;2024-02-26T01:34:55;10.10;;;7.38;;
4198;SDS011;2113;50.946;14.610;2024-02-26T01:37:23;15.18;;;7.40;;
4198;SDS011;2113;50.946;14.610;2024-02-26T01:39:52;12.27;;;6.13;;
4198;SDS011;2113;50.946;14.610;2024-02-26T01:42:20;11.32;;;5.75;;
4198;SDS011;2113;50.946;14.610;2024-02-26T01:44:49;10.18;;;6.20;;
4198;SDS011;2113;50.946;14.610;2024-02-26T01:47:17;11.25;;;6.18;;
4198;SDS011;2113;50.946;14.610;2024-02-26T01:49:46;14.68;;;6.65;;
4198;SDS011;2113;50.946;14.610;2024-02-26T01:52:16;9.93;;;6.05;;
4198;SDS011;2113;50.946;14.610;2024-02-26T01:54:45;9.63;;;5.60;;
4198;SDS011;2113;50.946;14.610;2024-02-26T01:57:13;12.32;;;7.38;;
4198;SDS011;2113;50.946;14.610;2024-02-26T01:59:42;11.95;;;5.53;;
4198;SDS011;2113;50.946;14.610;2024-02-26T02:02:11;9.93;;;4.95;;
4198;SDS011;2113;50.946;14.610;2024-02-26T02:04:40;8.52;;;5.13;;
4198;SDS011;2113;50.946;14.610;2024-02-26T02:07:08;9.52;;;5.38;;
4198;SDS011;2113;50.946;14.610;2024-02-26T02:09:39;12.35;;;5.43;;
4198;SDS011;2113;50.946;14.610;2024-02-26T02:12:08;8.48;;;5.70;;
4198;SDS011;2113;50.946;14.610;2024-02-26T02:14:37;15.35;;;5.47;;
4198;SDS011;2113;50.946;14.610;2024-02-26T02:17:05;15.48;;;6.15;;
4198;SDS011;2113;50.946;14.610;2024-02-26T02:19:33;8.77;;;5.65;;
4198;SDS011;2113;50.946;14.610;2024-02-26T02:22:03;9.82;;;5.55;;
4198;SDS011;2113;50.946;14.610;2024-02-26T02:24:32;10.40;;;5.60;;
4198;SDS011;2113;50.946;14.610;2024-02-26T02:27:00;12.05;;;5.78;;
4198;SDS011;2113;50.946;14.610;2024-02-26T02:29:29;10.43;;;5.90;;
4198;SDS011;2113;50.946;14.610;2024-02-26T02:31:57;10.48;;;5.90;;
4198;SDS011;2113;50.946;14.610;2024-02-26T02:34:25;11.50;;;6.80;;
4198;SDS011;2113;50.946;14.610;2024-02-26T02:36:54;13.10;;;7.72;;
4198;SDS011;2113;50.946;14.610;2024-02-26T02:39:24;17.88;;;8.75;;
4198;SDS011;2113;50.946;14.610;2024-02-26T02:41:52;16.20;;;7.80;;
4198;SDS011;2113;50.946;14.610;2024-02-26T02:44:20;14.25;;;8.60;;
4198;SDS011;2113;50.946;14.610;2024-02-26T02:46:48;14.98;;;9.02;;
4198;SDS011;2113;50.946;14.610;2024-02-26T02:49:18;15.35;;;9.23;;
4198;SDS011;2113;50.946;14.610;2024-02-26T02:51:47;13.20;;;8.10;;
4198;SDS011;2113;50.946;14.610;2024-02-26T02:54:15;12.38;;;7.20;;
4198;SDS011;2113;50.946;14.610;2024-02-26T02:56:44;15.13;;;7.32;;
4198;SDS011;2113;50.946;14.610;2024-02-26T02:59:12;13.73;;;7.57;;
4198;SDS011;2113;50.946;14.610;2024-02-26T03:01:41;18.40;;;7.65;;
4198;SDS011;2113;50.946;14.610;2024-02-26T03:04:11;16.10;;;8.23;;
4198;SDS011;2113;50.946;14.610;2024-02-26T03:06:39;13.15;;;7.00;;
4198;SDS011;2113;50.946;14.610;2024-02-26T03:09:07;14.23;;;6.63;;
4198;SDS011;2113;50.946;14.610;2024-02-26T03:11:36;12.27;;;8.05;;
4198;SDS011;2113;50.946;14.610;2024-02-26T03:14:07;21.00;;;7.30;;
4198;SDS011;2113;50.946;14.610;2024-02-26T03:16:36;9.85;;;6.47;;
4198;SDS011;2113;50.946;14.610;2024-02-26T03:19:04;17.80;;;7.20;;
4198;SDS011;2113;50.946;14.610;2024-02-26T03:21:32;17.55;;;7.30;;
4198;SDS011;2113;50.946;14.610;2024-02-26T03:24:00;12.45;;;6.72;;
4198;SDS011;2113;50.946;14.610;2024-02-26T03:26:29;17.30;;;8.37;;
4198;SDS011;2113;50.946;14.610;2024-02-26T03:28:58;12.48;;;6.65;;
4198;SDS011;2113;50.946;14.610;2024-02-26T03:31:27;11.77;;;6.20;;
4198;SDS011;2113;50.946;14.610;2024-02-26T03:33:56;13.55;;;6.07;;
4198;SDS011;2113;50.946;14.610;2024-02-26T03:36:25;14.40;;;7.25;;
4198;SDS011;2113;50.946;14.610;2024-02-26T03:38:54;12.85;;;7.25;;
4198;SDS011;2113;50.946;14.610;2024-02-26T03:41:21;20.13;;;9.68;;
4198;SDS011;2113;50.946;14.610;2024-02-26T03:43:49;11.45;;;7.00;;
4198;SDS011;2113;50.946;14.610;2024-02-26T03:46:17;14.85;;;6.35;;
4198;SDS011;2113;50.946;14.610;2024-02-26T03:48:47;14.10;;;6.88;;
4198;SDS011;2113;50.946;14.610;2024-02-26T03:51:15;13.93;;;7.63;;
4198;SDS011;2113;50.946;14.610;2024-02-26T03:53:44;18.05;;;7.25;;
4198;SDS011;2113;50.946;14.610;2024-02-26T03:56:12;15.05;;;7.68;;
4198;SDS011;2113;50.946;14.610;2024-02-26T03:58:41;12.45;;;6.65;;
4198;SDS011;2113;50.946;14.610;2024-02-26T04:01:09;14.32;;;7.57;;
4198;SDS011;2113;50.946;14.610;2024-02-26T04:03:37;12.18;;;7.00;;
4198;SDS011;2113;50.946;14.610;2024-02-26T04:06:09;15.15;;;6.25;;
4198;SDS011;2113;50.946;14.610;2024-02-26T04:08:38;13.05;;;6.90;;
4198;SDS011;2113;50.946;14.610;2024-02-26T04:11:06;13.18;;;7.53;;
4198;SDS011;2113;50.946;14.610;2024-02-26T04:13:35;12.38;;;7.20;;
4198;SDS011;2113;50.946;14.610;2024-02-26T04:16:05;10.30;;;5.85;;
4198;SDS011;2113;50.946;14.610;2024-02-26T04:18:33;9.65;;;6.72;;
4198;SDS011;2113;50.946;14.610;2024-02-26T04:21:01;14.65;;;7.53;;
4198;SDS011;2113;50.946;14.610;2024-02-26T04:23:35;11.10;;;6.13;;
4198;SDS011;2113;50.946;14.610;2024-02-26T04:26:04;16.08;;;7.75;;
4198;SDS011;2113;50.946;14.610;2024-02-26T04:28:32;10.93;;;7.03;;
4198;SDS011;2113;50.946;14.610;2024-02-26T04:31:00;11.65;;;7.00;;
4198;SDS011;2113;50.946;14.610;2024-02-26T04:33:28;19.05;;;7.03;;
4198;SDS011;2113;50.946;14.610;2024-02-26T04:35:57;12.65;;;6.43;;
4198;SDS011;2113;50.946;14.610;2024-02-26T04:38:25;13.05;;;8.65;;
4198;SDS011;2113;50.946;14.610;2024-02-26T04:40:55;14.45;;;7.03;;
4198;SDS011;2113;50.946;14.610;2024-02-26T04:43:23;14.43;;;6.40;;
4198;SDS011;2113;50.946;14.610;2024-02-26T04:45:51;11.13;;;6.82;;
4198;SDS011;2113;50.946;14.610;2024-02-26T04:48:19;11.25;;;6.82;;
4198;SDS011;2113;50.946;14.610;2024-02-26T04:50:48;10.55;;;7.07;;
4198;SDS011;2113;50.946;14.610;2024-02-26T04:53:16;17.73;;;7.28;;
4198;SDS011;2113;50.946;14.610;2024-02-26T04:55:45;10.40;;;5.55;;
4198;SDS011;2113;50.946;14.610;2024-02-26T04:58:14;15.95;;;7.20;;
4198;SDS011;2113;50.946;14.610;2024-02-26T05:00:42;19.88;;;7.88;;
4198;SDS011;2113;50.946;14.610;2024-02-26T05:03:12;13.88;;;7.13;;
4198;SDS011;2113;50.946;14.610;2024-02-26T05:05:42;12.73;;;7.20;;
4198;SDS011;2113;50.946;14.610;2024-02-26T05:08:11;12.27;;;7.20;;
4198;SDS011;2113;50.946;14.610;2024-02-26T05:10:39;9.55;;;5.57;;
4198;SDS011;2113;50.946;14.610;2024-02-26T05:13:08;13.02;;;7.25;;
4198;SDS011;2113;50.946;14.610;2024-02-26T05:15:38;23.98;;;12.93;;
4198;SDS011;2113;50.946;14.610;2024-02-26T05:18:06;19.23;;;8.82;;
4198;SDS011;2113;50.946;14.610;2024-02-26T05:20:35;16.00;;;7.50;;
4198;SDS011;2113;50.946;14.610;2024-02-26T05:23:04;10.40;;;6.90;;
4198;SDS011;2113;50.946;14.610;2024-02-26T05:25:32;14.93;;;7.65;;
4198;SDS011;2113;50.946;14.610;2024-02-26T05:28:01;16.45;;;8.45;;
4198;SDS011;2113;50.946;14.610;2024-02-26T05:30:29;11.85;;;6.85;;
4198;SDS011;2113;50.946;14.610;2024-02-26T05:33:00;20.00;;;6.75;;
4198;SDS011;2113;50.946;14.610;2024-02-26T05:35:28;28.30;;;6.40;;
4198;SDS011;2113;50.946;14.610;2024-02-26T05:37:56;17.35;;;6.70;;
4198;SDS011;2113;50.946;14.610;2024-02-26T05:40:25;11.18;;;6.07;;
4198;SDS011;2113;50.946;14.610;2024-02-26T05:42:53;13.73;;;6.60;;
4198;SDS011;2113;50.946;14.610;2024-02-26T05:45:21;13.55;;;7.00;;
4198;SDS011;2113;50.946;14.610;2024-02-26T05:47:50;13.55;;;7.53;;
4198;SDS011;2113;50.946;14.610;2024-02-26T05:50:19;12.13;;;6.72;;
4198;SDS011;2113;50.946;14.610;2024-02-26T05:52:47;15.15;;;7.05;;
4198;SDS011;2113;50.946;14.610;2024-02-26T05:55:15;13.05;;;6.75;;
4198;SDS011;2113;50.946;14.610;2024-02-26T05:57:43;10.23;;;6.82;;
4198;SDS011;2113;50.946;14.610;2024-02-26T06:00:12;13.45;;;7.03;;
4198;SDS011;2113;50.946;14.610;2024-02-26T06:02:42;14.65;;;8.02;;
4198;SDS011;2113;50.946;14.610;2024-02-26T06:05:10;14.15;;;8.00;;
4198;SDS011;2113;50.946;14.610;2024-02-26T06:07:40;18.10;;;8.35;;
4198;SDS011;2113;50.946;14.610;2024-02-26T06:10:08;14.88;;;7.03;;
4198;SDS011;2113;50.946;14.610;2024-02-26T06:12:37;13.85;;;7.82;;
4198;SDS011;2113;50.946;14.610;2024-02-26T06:15:05;11.68;;;7.32;;
4198;SDS011;2113;50.946;14.610;2024-02-26T06:17:35;15.13;;;7.30;;
4198;SDS011;2113;50.946;14.610;2024-02-26T06:20:04;15.23;;;8.00;;
4198;SDS011;2113;50.946;14.610;2024-02-26T06:22:40;16.15;;;8.65;;
4198;SDS011;2113;50.946;14.610;2024-02-26T06:25:09;25.75;;;12.70;;
4198;SDS011;2113;50.946;14.610;2024-02-26T06:27:37;19.70;;;12.02;;
4198;SDS011;2113;50.946;14.610;2024-02-26T06:30:06;27.88;;;13.55;;
4198;SDS011;2113;50.946;14.610;2024-02-26T06:32:35;29.48;;;14.43;;
4198;SDS011;2113;50.946;14.610;2024-02-26T06:35:03;28.10;;;13.70;;
4198;SDS011;2113;50.946;14.610;2024-02-26T06:37:34;19.85;;;12.07;;
4198;SDS011;2113;50.946;14.610;2024-02-26T06:40:05;22.25;;;13.43;;
4198;SDS011;2113;50.946;14.610;2024-02-26T06:42:34;31.88;;;15.70;;
4198;SDS011;2113;50.946;14.610;2024-02-26T06:45:04;42.80;;;19.48;;
4198;SDS011;2113;50.946;14.610;2024-02-26T06:47:34;31.77;;;14.77;;
4198;SDS011;2113;50.946;14.610;2024-02-26T06:50:03;27.35;;;14.00;;
4198;SDS011;2113;50.946;14.610;2024-02-26T06:52:32;27.52;;;13.35;;
4198;SDS011;2113;50.946;14.610;2024-02-26T06:55:00;32.45;;;19.42;;
4198;SDS011;2113;50.946;14.610;2024-02-26T06:57:29;37.17;;;20.88;;
4198;SDS011;2113;50.946;14.610;2024-02-26T06:59:58;33.88;;;20.58;;
4198;SDS011;2113;50.946;14.610;2024-02-26T07:02:26;30.00;;;17.80;;
4198;SDS011;2113;50.946;14.610;2024-02-26T07:04:54;29.80;;;16.08;;
4198;SDS011;2113;50.946;14.610;2024-02-26T07:07:24;23.08;;;12.80;;
4198;SDS011;2113;50.946;14.610;2024-02-26T07:09:54;24.25;;;11.57;;
4198;SDS011;2113;50.946;14.610;2024-02-26T07:12:22;20.25;;;11.50;;
4198;SDS011;2113;50.946;14.610;2024-02-26T07:14:52;18.48;;;10.02;;
4198;SDS011;2113;50.946;14.610;2024-02-26T07:17:20;22.02;;;11.32;;
4198;SDS011;2113;50.946;14.610;2024-02-26T07:19:50;28.80;;;12.55;;
4198;SDS011;2113;50.946;14.610;2024-02-26T07:23:07;24.35;;;12.48;;
4198;SDS011;2113;50.946;14.610;2024-02-26T07:25:36;28.63;;;14.50;;
4198;SDS011;2113;50.946;14.610;2024-02-26T07:28:05;35.92;;;15.93;;
4198;SDS011;2113;50.946;14.610;2024-02-26T07:30:35;29.08;;;16.15;;
4198;SDS011;2113;50.946;14.610;2024-02-26T07:33:03;38.10;;;19.88;;
4198;SDS011;2113;50.946;14.610;2024-02-26T07:35:31;38.90;;;20.25;;
4198;SDS011;2113;50.946;14.610;2024-02-26T07:38:00;34.78;;;18.65;;
4198;SDS011;2113;50.946;14.610;2024-02-26T07:40:28;26.70;;;16.30;;
4198;SDS011;2113;50.946;14.610;2024-02-26T07:42:56;23.27;;;14.05;;
4198;SDS011;2113;50.946;14.610;2024-02-26T07:45:24;19.83;;;10.25;;
4198;SDS011;2113;50.946;14.610;2024-02-26T07:47:54;17.92;;;9.50;;
4198;SDS011;2113;50.946;14.610;2024-02-26T07:50:23;15.88;;;9.65;;
4198;SDS011;2113;50.946;14.610;2024-02-26T07:52:52;19.17;;;9.75;;
4198;SDS011;2113;50.946;14.610;2024-02-26T07:55:20;13.18;;;8.88;;
4198;SDS011;2113;50.946;14.610;2024-02-26T07:57:49;11.00;;;7.78;;
4198;SDS011;2113;50.946;14.610;2024-02-26T08:00:17;15.77;;;8.57;;
4198;SDS011;2113;50.946;14.610;2024-02-26T08:02:46;13.45;;;8.20;;
4198;SDS011;2113;50.946;14.610;2024-02-26T08:05:16;11.30;;;8.55;;
4198;SDS011;2113;50.946;14.610;2024-02-26T08:07:44;17.13;;;9.05;;
4198;SDS011;2113;50.946;14.610;2024-02-26T08:10:13;16.70;;;9.95;;
4198;SDS011;2113;50.946;14.610;2024-02-26T08:12:41;17.35;;;8.98;;
4198;SDS011;2113;50.946;14.610;2024-02-26T08:15:11;15.90;;;9.52;;
4198;SDS011;2113;50.946;14.610;2024-02-26T08:17:39;18.23;;;9.68;;
4198;SDS011;2113;50.946;14.610;2024-02-26T08:20:08;13.43;;;8.43;;
4198;SDS011;2113;50.946;14.610;2024-02-26T08:22:38;16.58;;;9.50;;
4198;SDS011;2113;50.946;14.610;2024-02-26T08:25:07;14.65;;;9.15;;
4198;SDS011;2113;50.946;14.610;2024-02-26T08:27:36;15.35;;;8.95;;
4198;SDS011;2113;50.946;14.610;2024-02-26T08:30:05;13.50;;;8.40;;
4198;SDS011;2113;50.946;14.610;2024-02-26T08:32:34;15.98;;;8.93;;
4198;SDS011;2113;50.946;14.610;2024-02-26T08:35:02;12.88;;;8.13;;
4198;SDS011;2113;50.946;14.610;2024-02-26T08:37:31;12.18;;;8.85;;
4198;SDS011;2113;50.946;14.610;2024-02-26T08:40:01;14.20;;;8.40;;
4198;SDS011;2113;50.946;14.610;2024-02-26T08:42:33;12.23;;;8.48;;
4198;SDS011;2113;50.946;14.610;2024-02-26T08:45:01;14.63;;;8.68;;
4198;SDS011;2113;50.946;14.610;2024-02-26T08:47:30;13.13;;;8.35;;
4198;SDS011;2113;50.946;14.610;2024-02-26T08:50:00;13.80;;;8.02;;
4198;SDS011;2113;50.946;14.610;2024-02-26T08:52:28;12.93;;;8.07;;
4198;SDS011;2113;50.946;14.610;2024-02-26T08:54:56;13.45;;;7.50;;
4198;SDS011;2113;50.946;14.610;2024-02-26T08:57:26;13.63;;;7.25;;
4198;SDS011;2113;50.946;14.610;2024-02-26T08:59:55;11.93;;;7.78;;
4198;SDS011;2113;50.946;14.610;2024-02-26T09:02:23;10.70;;;8.00;;
4198;SDS011;2113;50.946;14.610;2024-02-26T09:04:52;10.75;;;5.97;;
4198;SDS011;2113;50.946;14.610;2024-02-26T09:07:21;12.00;;;7.00;;
4198;SDS011;2113;50.946;14.610;2024-02-26T09:09:49;12.30;;;7.57;;
4198;SDS011;2113;50.946;14.610;2024-02-26T09:12:18;9.38;;;6.30;;
4198;SDS011;2113;50.946;14.610;2024-02-26T09:14:48;13.07;;;8.15;;
4198;SDS011;2113;50.946;14.610;2024-02-26T09:17:16;10.18;;;6.00;;
4198;SDS011;2113;50.946;14.610;2024-02-26T09:19:44;12.25;;;7.05;;
4198;SDS011;2113;50.946;14.610;2024-02-26T09:22:12;9.82;;;6.00;;
4198;SDS011;2113;50.946;14.610;2024-02-26T09:24:44;13.55;;;7.18;;
4198;SDS011;2113;50.946;14.610;2024-02-26T09:27:12;11.70;;;6.25;;
4198;SDS011;2113;50.946;14.610;2024-02-26T09:29:41;9.65;;;6.53;;
4198;SDS011;2113;50.946;14.610;2024-02-26T09:32:10;11.25;;;7.10;;
4198;SDS011;2113;50.946;14.610;2024-02-26T09:34:40;11.95;;;6.60;;
4198;SDS011;2113;50.946;14.610;2024-02-26T09:37:08;11.60;;;6.70;;
4198;SDS011;2113;50.946;14.610;2024-02-26T09:39:47;13.60;;;6.10;;
4198;SDS011;2113;50.946;14.610;2024-02-26T09:42:15;8.70;;;5.90;;
4198;SDS011;2113;50.946;14.610;2024-02-26T09:44:47;10.80;;;6.85;;
4198;SDS011;2113;50.946;14.610;2024-02-26T09:47:20;8.85;;;5.90;;
4198;SDS011;2113;50.946;14.610;2024-02-26T09:49:50;9.02;;;6.05;;
4198;SDS011;2113;50.946;14.610;2024-02-26T09:52:21;11.90;;;6.97;;
4198;SDS011;2113;50.946;14.610;2024-02-26T09:54:51;14.93;;;7.70;;
4198;SDS011;2113;50.946;14.610;2024-02-26T09:57:19;10.43;;;6.47;;
4198;SDS011;2113;50.946;14.610;2024-02-26T09:59:53;10.73;;;6.97;;
4198;SDS011;2113;50.946;14.610;2024-02-26T10:02:23;9.38;;;5.63;;
4198;SDS011;2113;50.946;14.610;2024-02-26T10:04:52;11.85;;;7.00;;
4198;SDS011;2113;50.946;14.610;2024-02-26T10:07:24;10.35;;;5.95;;
4198;SDS011;2113;50.946;14.610;2024-02-26T10:09:53;10.55;;;6.20;;
4198;SDS011;2113;50.946;14.610;2024-02-26T10:12:21;9.45;;;5.65;;
4198;SDS011;2113;50.946;14.610;2024-02-26T10:14:49;14.10;;;5.40;;
4198;SDS011;2113;50.946;14.610;2024-02-26T10:17:18;9.40;;;5.38;;
4198;SDS011;2113;50.946;14.610;2024-02-26T10:19:49;7.47;;;4.55;;
4198;SDS011;2113;50.946;14.610;2024-02-26T10:22:22;9.00;;;5.90;;
4198;SDS011;2113;50.946;14.610;2024-02-26T10:24:50;8.55;;;5.30;;
4198;SDS011;2113;50.946;14.610;2024-02-26T10:27:19;7.55;;;5.13;;
4198;SDS011;2113;50.946;14.610;2024-02-26T10:29:48;9.05;;;5.75;;
4198;SDS011;2113;50.946;14.610;2024-02-26T10:32:18;7.43;;;4.47;;
4198;SDS011;2113;50.946;14.610;2024-02-26T10:34:47;9.85;;;5.32;;
4198;SDS011;2113;50.946;14.610;2024-02-26T10:37:16;5.97;;;4.60;;
4198;SDS011;2113;50.946;14.610;2024-02-26T10:39:46;8.82;;;5.45;;
4198;SDS011;2113;50.946;14.610;2024-02-26T10:42:15;10.45;;;6.28;;
4198;SDS011;2113;50.946;14.610;2024-02-26T10:44:46;6.97;;;4.60;;
4198;SDS011;2113;50.946;14.610;2024-02-26T10:47:15;8.50;;;5.15;;
4198;SDS011;2113;50.946;14.610;2024-02-26T10:49:45;11.13;;;5.93;;
4198;SDS011;2113;50.946;14.610;2024-02-26T10:52:16;8.15;;;4.90;;
4198;SDS011;2113;50.946;14.610;2024-02-26T10:54:48;9.52;;;5.38;;
4198;SDS011;2113;50.946;14.610;2024-02-26T10:57:24;7.68;;;4.82;;
4198;SDS011;2113;50.946;14.610;2024-02-26T10:59:56;6.70;;;4.60;;
4198;SDS011;2113;50.946;14.610;2024-02-26T11:02:24;10.30;;;5.35;;
4198;SDS011;2113;50.946;14.610;2024-02-26T11:04:53;10.30;;;4.75;;
4198;SDS011;2113;50.946;14.610;2024-02-26T11:07:23;11.70;;;5.00;;
4198;SDS011;2113;50.946;14.610;2024-02-26T11:09:54;6.40;;;4.25;;
4198;SDS011;2113;50.946;14.610;2024-02-26T11:12:23;10.00;;;4.85;;
4198;SDS011;2113;50.946;14.610;2024-02-26T11:14:53;9.00;;;4.72;;
4198;SDS011;2113;50.946;14.610;2024-02-26T11:17:23;9.13;;;4.22;;
4198;SDS011;2113;50.946;14.610;2024-02-26T11:19:58;6.80;;;4.40;;
4198;SDS011;2113;50.946;14.610;2024-02-26T11:22:30;6.68;;;4.28;;
4198;SDS011;2113;50.946;14.610;2024-02-26T11:25:00;8.02;;;4.70;;
4198;SDS011;2113;50.946;14.610;2024-02-26T11:27:29;8.15;;;4.97;;
4198;SDS011;2113;50.946;14.610;2024-02-26T11:30:01;7.57;;;4.28;;
4198;SDS011;2113;50.946;14.610;2024-02-26T11:32:32;7.35;;;4.80;;
4198;SDS011;2113;50.946;14.610;2024-02-26T11:35:02;8.95;;;5.43;;
4198;SDS011;2113;50.946;14.610;2024-02-26T11:37:35;9.25;;;4.82;;
4198;SDS011;2113;50.946;14.610;2024-02-26T11:40:10;8.18;;;4.72;;
4198;SDS011;2113;50.946;14.610;2024-02-26T11:42:43;10.52;;;5.18;;
4198;SDS011;2113;50.946;14.610;2024-02-26T11:48:15;11.23;;;5.70;;
4198;SDS011;2113;50.946;14.610;2024-02-26T11:50:46;7.80;;;4.70;;
4198;SDS011;2113;50.946;14.610;2024-02-26T11:53:20;7.20;;;5.15;;
4198;SDS011;2113;50.946;14.610;2024-02-26T11:58:53;6.35;;;4.47;;
4198;SDS011;2113;50.946;14.610;2024-02-26T12:01:43;6.18;;;4.25;;
4198;SDS011;2113;50.946;14.610;2024-02-26T12:04:16;6.65;;;4.18;;
4198;SDS011;2113;50.946;14.610;2024-02-26T12:06:55;8.80;;;4.97;;
4198;SDS011;2113;50.946;14.610;2024-02-26T12:09:31;8.55;;;5.65;;
4198;SDS011;2113;50.946;14.610;2024-02-26T12:12:01;8.13;;;4.65;;
4198;SDS011;2113;50.946;14.610;2024-02-26T12:14:32;8.30;;;4.85;;
4198;SDS011;2113;50.946;14.610;2024-02-26T12:17:01;7.00;;;4.40;;
4198;SDS011;2113;50.946;14.610;2024-02-26T12:19:34;15.57;;;5.75;;
4198;SDS011;2113;50.946;14.610;2024-02-26T12:22:08;11.65;;;5.47;;
4198;SDS011;2113;50.946;14.610;2024-02-26T12:24:40;7.70;;;4.40;;
4198;SDS011;2113;50.946;14.610;2024-02-26T12:27:08;7.55;;;4.53;;
4198;SDS011;2113;50.946;14.610;2024-02-26T12:29:37;8.65;;;4.90;;
4198;SDS011;2113;50.946;14.610;2024-02-26T12:32:05;9.85;;;4.78;;
4198;SDS011;2113;50.946;14.610;2024-02-26T12:34:34;7.50;;;5.88;;
4198;SDS011;2113;50.946;14.610;2024-02-26T12:37:03;8.00;;;4.82;;
4198;SDS011;2113;50.946;14.610;2024-02-26T12:39:31;7.50;;;5.35;;
4198;SDS011;2113;50.946;14.610;2024-02-26T12:42:00;8.65;;;5.80;;
4198;SDS011;2113;50.946;14.610;2024-02-26T12:44:30;12.77;;;5.78;;
4198;SDS011;2113;50.946;14.610;2024-02-26T12:46:59;10.73;;;5.15;;
4198;SDS011;2113;50.946;14.610;2024-02-26T12:49:30;7.30;;;5.10;;
4198;SDS011;2113;50.946;14.610;2024-02-26T12:52:00;10.07;;;6.43;;
4198;SDS011;2113;50.946;14.610;2024-02-26T12:54:31;11.68;;;5.65;;
4198;SDS011;2113;50.946;14.610;2024-02-26T12:57:02;8.55;;;5.43;;
4198;SDS011;2113;50.946;14.610;2024-02-26T13:02:27;7.60;;;5.18;;
4198;SDS011;2113;50.946;14.610;2024-02-26T13:04:56;12.02;;;6.20;;
4198;SDS011;2113;50.946;14.610;2024-02-26T13:07:27;8.13;;;4.93;;
4198;SDS011;2113;50.946;14.610;2024-02-26T13:09:56;7.75;;;5.05;;
4198;SDS011;2113;50.946;14.610;2024-02-26T13:12:26;14.70;;;5.90;;
4198;SDS011;2113;50.946;14.610;2024-02-26T13:14:58;10.32;;;5.97;;
4198;SDS011;2113;50.946;14.610;2024-02-26T13:17:27;15.30;;;5.95;;
4198;SDS011;2113;50.946;14.610;2024-02-26T13:19:59;7.47;;;5.18;;
4198;SDS011;2113;50.946;14.610;2024-02-26T13:22:27;8.63;;;5.47;;
4198;SDS011;2113;50.946;14.610;2024-02-26T13:25:00;9.20;;;5.57;;
4198;SDS011;2113;50.946;14.610;2024-02-26T13:27:31;9.93;;;5.95;;
4198;SDS011;2113;50.946;14.610;2024-02-26T13:30:03;8.50;;;5.85;;
4198;SDS011;2113;50.946;14.610;2024-02-26T13:32:34;11.82;;;5.57;;
4198;SDS011;2113;50.946;14.610;2024-02-26T13:35:04;11.15;;;4.53;;
4198;SDS011;2113;50.946;14.610;2024-02-26T13:37:33;11.43;;;5.10;;
4198;SDS011;2113;50.946;14.610;2024-02-26T13:40:04;10.18;;;5.60;;
4198;SDS011;2113;50.946;14.610;2024-02-26T13:42:35;9.55;;;5.65;;
4198;SDS011;2113;50.946;14.610;2024-02-26T13:45:04;12.30;;;5.68;;
4198;SDS011;2113;50.946;14.610;2024-02-26T13:47:35;7.68;;;5.22;;
4198;SDS011;2113;50.946;14.610;2024-02-26T13:50:03;8.48;;;5.10;;
4198;SDS011;2113;50.946;14.610;2024-02-26T13:52:32;8.07;;;4.85;;
4198;SDS011;2113;50.946;14.610;2024-02-26T13:55:01;10.55;;;5.13;;
4198;SDS011;2113;50.946;14.610;2024-02-26T13:57:31;10.32;;;5.30;;
4198;SDS011;2113;50.946;14.610;2024-02-26T14:00:00;8.70;;;5.60;;
4198;SDS011;2113;50.946;14.610;2024-02-26T14:02:39;8.18;;;5.35;;
4198;SDS011;2113;50.946;14.610;2024-02-26T14:05:08;9.70;;;4.85;;
4198;SDS011;2113;50.946;14.610;2024-02-26T14:07:37;11.10;;;6.18;;
4198;SDS011;2113;50.946;14.610;2024-02-26T14:10:06;8.02;;;4.80;;
4198;SDS011;2113;50.946;14.610;2024-02-26T14:12:35;8.70;;;5.40;;
4198;SDS011;2113;50.946;14.610;2024-02-26T14:15:06;6.00;;;4.32;;
4198;SDS011;2113;50.946;14.610;2024-02-26T14:17:38;8.75;;;5.70;;
4198;SDS011;2113;50.946;14.610;2024-02-26T14:20:06;8.25;;;5.60;;
4198;SDS011;2113;50.946;14.610;2024-02-26T14:22:36;8.38;;;4.93;;
4198;SDS011;2113;50.946;14.610;2024-02-26T14:25:04;7.82;;;5.30;;
4198;SDS011;2113;50.946;14.610;2024-02-26T14:27:36;9.77;;;5.75;;
4198;SDS011;2113;50.946;14.610;2024-02-26T14:30:08;8.95;;;4.80;;
4198;SDS011;2113;50.946;14.610;2024-02-26T14:32:37;7.82;;;4.72;;
4198;SDS011;2113;50.946;14.610;2024-02-26T14:35:06;11.50;;;5.00;;
4198;SDS011;2113;50.946;14.610;2024-02-26T14:37:42;9.13;;;6.00;;
4198;SDS011;2113;50.946;14.610;2024-02-26T14:40:13;8.23;;;4.85;;
4198;SDS011;2113;50.946;14.610;2024-02-26T14:42:42;8.02;;;4.65;;
4198;SDS011;2113;50.946;14.610;2024-02-26T14:45:12;7.95;;;5.43;;
4198;SDS011;2113;50.946;14.610;2024-02-26T14:47:41;10.05;;;6.05;;
4198;SDS011;2113;50.946;14.610;2024-02-26T14:50:09;9.82;;;6.13;;
4198;SDS011;2113;50.946;14.610;2024-02-26T14:52:38;11.00;;;6.72;;
4198;SDS011;2113;50.946;14.610;2024-02-26T14:55:07;10.13;;;6.43;;
4198;SDS011;2113;50.946;14.610;2024-02-26T14:57:35;7.93;;;5.25;;
4198;SDS011;2113;50.946;14.610;2024-02-26T15:00:03;9.93;;;5.90;;
4198;SDS011;2113;50.946;14.610;2024-02-26T15:02:35;12.30;;;6.18;;
4198;SDS011;2113;50.946;14.610;2024-02-26T15:09:35;9.25;;;5.75;;
4198;SDS011;2113;50.946;14.610;2024-02-26T15:12:04;11.10;;;6.28;;
4198;SDS011;2113;50.946;14.610;2024-02-26T15:14:34;8.77;;;6.45;;
4198;SDS011;2113;50.946;14.610;2024-02-26T15:17:03;9.55;;;5.95;;